sensor_id;sensor_type;location;lat;lon;timestamp;P1;durP1;ratioP1;P2;durP2;ratioP2
60873;SDS011;46715;40.642;-7.920;2024-02-21T00:00:27;22.93;;;16.83;;
60873;SDS011;46715;40.642;-7.920;2024-02-21T00:02:28;28.83;;;17.83;;
60873;SDS011;46715;40.642;-7.920;2024-02-21T00:04:29;23.83;;;17.83;;
60873;SDS011;46715;40.642;-7.920;2024-02-21T00:06:30;28.13;;;18.13;;
60873;SDS011;46715;40.642;-7.920;2024-02-21T00:08:31;26.67;;;18.00;;
60873;SDS011;46715;40.642;-7.920;2024-02-21T00:10:31;24.07;;;15.80;;
60873;SDS011;46715;40.642;-7.920;2024-02-21T00:12:33;25.13;;;17.25;;
60873;SDS011;46715;40.642;-7.920;2024-02-21T00:14:33;21.57;;;15.00;;
60873;SDS011;46715;40.642;-7.920;2024-02-21T00:16:34;22.80;;;14.13;;
60873;SDS011;46715;40.642;-7.920;2024-02-21T00:18:35;22.90;;;14.13;;
60873;SDS011;46715;40.642;-7.920;2024-02-21T00:20:36;20.60;;;14.07;;
60873;SDS011;46715;40.642;-7.920;2024-02-21T00:22:37;20.10;;;15.05;;
60873;SDS011;46715;40.642;-7.920;2024-02-21T00:24:38;20.70;;;14.18;;
60873;SDS011;46715;40.642;-7.920;2024-02-21T00:26:38;21.70;;;14.43;;
60873;SDS011;46715;40.642;-7.920;2024-02-21T00:28:39;20.27;;;14.43;;
60873;SDS011;46715;40.642;-7.920;2024-02-21T00:30:40;19.57;;;13.17;;
60873;SDS011;46715;40.642;-7.920;2024-02-21T00:32:41;19.23;;;14.23;;
60873;SDS011;46715;40.642;-7.920;2024-02-21T00:34:41;23.27;;;14.87;;
60873;SDS011;46715;40.642;-7.920;2024-02-21T00:36:42;20.40;;;13.20;;
60873;SDS011;46715;40.642;-7.920;2024-02-21T00:38:43;20.30;;;13.30;;
60873;SDS011;46715;40.642;-7.920;2024-02-21T00:40:45;19.05;;;12.45;;
60873;SDS011;46715;40.642;-7.920;2024-02-21T00:42:46;18.70;;;12.70;;
60873;SDS011;46715;40.642;-7.920;2024-02-21T00:46:48;18.23;;;12.50;;
60873;SDS011;46715;40.642;-7.920;2024-02-21T00:48:48;18.67;;;13.40;;
60873;SDS011;46715;40.642;-7.920;2024-02-21T00:50:51;17.60;;;13.27;;
60873;SDS011;46715;40.642;-7.920;2024-02-21T00:52:52;16.13;;;12.57;;
60873;SDS011;46715;40.642;-7.920;2024-02-21T00:54:52;17.17;;;12.67;;
60873;SDS011;46715;40.642;-7.920;2024-02-21T00:56:53;20.30;;;14.00;;
60873;SDS011;46715;40.642;-7.920;2024-02-21T00:58:54;18.50;;;13.27;;
60873;SDS011;46715;40.642;-7.920;2024-02-21T01:00:55;16.53;;;12.67;;
60873;SDS011;46715;40.642;-7.920;2024-02-21T01:02:57;17.10;;;12.50;;
60873;SDS011;46715;40.642;-7.920;2024-02-21T01:04:58;18.60;;;12.53;;
60873;SDS011;46715;40.642;-7.920;2024-02-21T01:06:59;20.27;;;13.33;;
60873;SDS011;46715;40.642;-7.920;2024-02-21T01:09:00;17.60;;;11.53;;
60873;SDS011;46715;40.642;-7.920;2024-02-21T01:11:01;17.00;;;12.13;;
60873;SDS011;46715;40.642;-7.920;2024-02-21T01:13:01;22.53;;;12.40;;
60873;SDS011;46715;40.642;-7.920;2024-02-21T01:15:06;17.00;;;12.02;;
60873;SDS011;46715;40.642;-7.920;2024-02-21T01:17:07;18.50;;;12.38;;
60873;SDS011;46715;40.642;-7.920;2024-02-21T01:19:07;17.27;;;11.77;;
60873;SDS011;46715;40.642;-7.920;2024-02-21T01:23:10;15.55;;;11.45;;
60873;SDS011;46715;40.642;-7.920;2024-02-21T01:25:11;17.80;;;12.23;;
60873;SDS011;46715;40.642;-7.920;2024-02-21T01:27:12;18.30;;;11.97;;
60873;SDS011;46715;40.642;-7.920;2024-02-21T01:29:12;16.60;;;12.00;;
60873;SDS011;46715;40.642;-7.920;2024-02-21T01:31:13;18.07;;;12.50;;
60873;SDS011;46715;40.642;-7.920;2024-02-21T01:33:15;17.55;;;11.52;;
60873;SDS011;46715;40.642;-7.920;2024-02-21T01:35:16;16.23;;;11.43;;
60873;SDS011;46715;40.642;-7.920;2024-02-21T01:37:17;15.23;;;11.50;;
60873;SDS011;46715;40.642;-7.920;2024-02-21T01:39:17;15.10;;;10.53;;
60873;SDS011;46715;40.642;-7.920;2024-02-21T01:41:18;16.30;;;11.73;;
60873;SDS011;46715;40.642;-7.920;2024-02-21T01:45:21;18.40;;;11.18;;
60873;SDS011;46715;40.642;-7.920;2024-02-21T01:47:22;16.47;;;11.00;;
60873;SDS011;46715;40.642;-7.920;2024-02-21T01:49:23;19.55;;;12.13;;
60873;SDS011;46715;40.642;-7.920;2024-02-21T01:51:24;21.10;;;11.50;;
60873;SDS011;46715;40.642;-7.920;2024-02-21T01:53:27;17.20;;;12.45;;
60873;SDS011;46715;40.642;-7.920;2024-02-21T01:55:31;17.23;;;11.68;;
60873;SDS011;46715;40.642;-7.920;2024-02-21T01:57:31;20.33;;;11.50;;
60873;SDS011;46715;40.642;-7.920;2024-02-21T01:59:33;15.95;;;11.00;;
60873;SDS011;46715;40.642;-7.920;2024-02-21T02:01:33;16.47;;;12.10;;
60873;SDS011;46715;40.642;-7.920;2024-02-21T02:03:34;17.27;;;11.20;;
60873;SDS011;46715;40.642;-7.920;2024-02-21T02:05:37;17.70;;;11.83;;
60873;SDS011;46715;40.642;-7.920;2024-02-21T02:07:38;15.35;;;11.85;;
60873;SDS011;46715;40.642;-7.920;2024-02-21T02:09:38;20.70;;;13.27;;
60873;SDS011;46715;40.642;-7.920;2024-02-21T02:11:39;18.93;;;12.53;;
60873;SDS011;46715;40.642;-7.920;2024-02-21T02:13:40;15.90;;;12.17;;
60873;SDS011;46715;40.642;-7.920;2024-02-21T02:15:44;17.50;;;11.97;;
60873;SDS011;46715;40.642;-7.920;2024-02-21T02:17:46;15.05;;;10.57;;
60873;SDS011;46715;40.642;-7.920;2024-02-21T02:19:47;15.10;;;11.13;;
60873;SDS011;46715;40.642;-7.920;2024-02-21T02:21:53;14.00;;;10.07;;
60873;SDS011;46715;40.642;-7.920;2024-02-21T02:23:56;16.98;;;11.43;;
60873;SDS011;46715;40.642;-7.920;2024-02-21T02:25:57;16.45;;;10.32;;
60873;SDS011;46715;40.642;-7.920;2024-02-21T02:27:59;17.58;;;12.05;;
60873;SDS011;46715;40.642;-7.920;2024-02-21T02:30:01;15.27;;;11.50;;
60873;SDS011;46715;40.642;-7.920;2024-02-21T02:32:03;14.75;;;10.38;;
60873;SDS011;46715;40.642;-7.920;2024-02-21T02:34:04;13.63;;;10.55;;
60873;SDS011;46715;40.642;-7.920;2024-02-21T02:36:05;15.57;;;11.30;;
60873;SDS011;46715;40.642;-7.920;2024-02-21T02:38:06;15.07;;;11.40;;
60873;SDS011;46715;40.642;-7.920;2024-02-21T02:40:07;14.87;;;10.20;;
60873;SDS011;46715;40.642;-7.920;2024-02-21T02:42:08;15.65;;;11.73;;
60873;SDS011;46715;40.642;-7.920;2024-02-21T02:44:09;15.73;;;10.70;;
60873;SDS011;46715;40.642;-7.920;2024-02-21T02:46:09;17.40;;;11.67;;
60873;SDS011;46715;40.642;-7.920;2024-02-21T02:48:10;15.50;;;11.00;;
60873;SDS011;46715;40.642;-7.920;2024-02-21T02:50:11;14.57;;;10.80;;
60873;SDS011;46715;40.642;-7.920;2024-02-21T02:52:12;14.70;;;10.73;;
60873;SDS011;46715;40.642;-7.920;2024-02-21T02:54:13;17.20;;;11.20;;
60873;SDS011;46715;40.642;-7.920;2024-02-21T02:56:15;13.73;;;9.90;;
60873;SDS011;46715;40.642;-7.920;2024-02-21T03:00:17;13.35;;;9.80;;
60873;SDS011;46715;40.642;-7.920;2024-02-21T03:02:18;14.05;;;11.30;;
60873;SDS011;46715;40.642;-7.920;2024-02-21T03:04:18;16.37;;;11.07;;
60873;SDS011;46715;40.642;-7.920;2024-02-21T03:06:19;17.40;;;11.13;;
60873;SDS011;46715;40.642;-7.920;2024-02-21T03:08:20;13.95;;;10.27;;
60873;SDS011;46715;40.642;-7.920;2024-02-21T03:10:21;15.53;;;10.43;;
60873;SDS011;46715;40.642;-7.920;2024-02-21T03:12:22;13.33;;;10.10;;
60873;SDS011;46715;40.642;-7.920;2024-02-21T03:14:28;13.93;;;9.77;;
60873;SDS011;46715;40.642;-7.920;2024-02-21T03:16:29;14.70;;;10.45;;
60873;SDS011;46715;40.642;-7.920;2024-02-21T03:18:30;13.47;;;10.00;;
60873;SDS011;46715;40.642;-7.920;2024-02-21T03:20:31;15.63;;;10.60;;
60873;SDS011;46715;40.642;-7.920;2024-02-21T03:22:32;15.43;;;9.77;;
60873;SDS011;46715;40.642;-7.920;2024-02-21T03:24:33;16.07;;;10.40;;
60873;SDS011;46715;40.642;-7.920;2024-02-21T03:26:34;15.07;;;10.40;;
60873;SDS011;46715;40.642;-7.920;2024-02-21T03:28:34;14.77;;;9.70;;
60873;SDS011;46715;40.642;-7.920;2024-02-21T03:30:35;15.00;;;10.00;;
60873;SDS011;46715;40.642;-7.920;2024-02-21T03:32:36;14.60;;;9.90;;
60873;SDS011;46715;40.642;-7.920;2024-02-21T03:34:38;16.95;;;10.65;;
60873;SDS011;46715;40.642;-7.920;2024-02-21T03:36:39;13.13;;;9.53;;
60873;SDS011;46715;40.642;-7.920;2024-02-21T03:38:39;15.33;;;9.70;;
60873;SDS011;46715;40.642;-7.920;2024-02-21T03:40:40;12.83;;;8.93;;
60873;SDS011;46715;40.642;-7.920;2024-02-21T03:42:41;11.87;;;9.07;;
60873;SDS011;46715;40.642;-7.920;2024-02-21T03:44:42;14.70;;;9.97;;
60873;SDS011;46715;40.642;-7.920;2024-02-21T03:46:42;15.53;;;10.10;;
60873;SDS011;46715;40.642;-7.920;2024-02-21T03:48:43;12.47;;;9.77;;
60873;SDS011;46715;40.642;-7.920;2024-02-21T03:50:45;15.02;;;9.82;;
60873;SDS011;46715;40.642;-7.920;2024-02-21T03:52:46;12.70;;;9.63;;
60873;SDS011;46715;40.642;-7.920;2024-02-21T03:54:47;12.73;;;9.37;;
60873;SDS011;46715;40.642;-7.920;2024-02-21T03:56:48;13.43;;;9.00;;
60873;SDS011;46715;40.642;-7.920;2024-02-21T03:58:49;16.48;;;10.18;;
60873;SDS011;46715;40.642;-7.920;2024-02-21T04:00:50;13.70;;;9.40;;
60873;SDS011;46715;40.642;-7.920;2024-02-21T04:02:52;16.52;;;9.40;;
60873;SDS011;46715;40.642;-7.920;2024-02-21T04:04:52;12.57;;;9.60;;
60873;SDS011;46715;40.642;-7.920;2024-02-21T04:06:53;13.20;;;8.13;;
60873;SDS011;46715;40.642;-7.920;2024-02-21T04:08:54;16.03;;;9.43;;
60873;SDS011;46715;40.642;-7.920;2024-02-21T04:10:55;16.70;;;9.95;;
60873;SDS011;46715;40.642;-7.920;2024-02-21T04:12:56;13.77;;;9.80;;
60873;SDS011;46715;40.642;-7.920;2024-02-21T04:14:57;13.37;;;8.93;;
60873;SDS011;46715;40.642;-7.920;2024-02-21T04:16:58;12.53;;;8.90;;
60873;SDS011;46715;40.642;-7.920;2024-02-21T04:18:59;16.20;;;8.60;;
60873;SDS011;46715;40.642;-7.920;2024-02-21T04:20:59;13.17;;;9.10;;
60873;SDS011;46715;40.642;-7.920;2024-02-21T04:23:00;13.47;;;9.80;;
60873;SDS011;46715;40.642;-7.920;2024-02-21T04:25:01;13.30;;;8.80;;
60873;SDS011;46715;40.642;-7.920;2024-02-21T04:27:02;13.13;;;8.60;;
60873;SDS011;46715;40.642;-7.920;2024-02-21T04:29:03;11.83;;;8.80;;
60873;SDS011;46715;40.642;-7.920;2024-02-21T04:31:03;14.67;;;9.00;;
60873;SDS011;46715;40.642;-7.920;2024-02-21T04:33:04;12.90;;;9.00;;
60873;SDS011;46715;40.642;-7.920;2024-02-21T04:35:05;12.17;;;8.33;;
60873;SDS011;46715;40.642;-7.920;2024-02-21T04:37:07;13.38;;;9.18;;
60873;SDS011;46715;40.642;-7.920;2024-02-21T04:41:09;14.48;;;8.43;;
60873;SDS011;46715;40.642;-7.920;2024-02-21T04:43:10;12.37;;;8.63;;
60873;SDS011;46715;40.642;-7.920;2024-02-21T04:45:11;14.30;;;10.03;;
60873;SDS011;46715;40.642;-7.920;2024-02-21T04:47:12;14.77;;;9.43;;
60873;SDS011;46715;40.642;-7.920;2024-02-21T04:49:12;12.17;;;8.57;;
60873;SDS011;46715;40.642;-7.920;2024-02-21T04:51:13;16.17;;;9.97;;
60873;SDS011;46715;40.642;-7.920;2024-02-21T04:53:14;14.13;;;10.20;;
60873;SDS011;46715;40.642;-7.920;2024-02-21T04:55:15;13.23;;;9.53;;
60873;SDS011;46715;40.642;-7.920;2024-02-21T04:57:16;14.37;;;9.67;;
60873;SDS011;46715;40.642;-7.920;2024-02-21T04:59:17;15.98;;;9.38;;
60873;SDS011;46715;40.642;-7.920;2024-02-21T05:01:18;14.70;;;9.75;;
60873;SDS011;46715;40.642;-7.920;2024-02-21T05:03:19;13.00;;;9.30;;
60873;SDS011;46715;40.642;-7.920;2024-02-21T05:05:20;12.53;;;9.63;;
60873;SDS011;46715;40.642;-7.920;2024-02-21T05:07:20;17.70;;;10.07;;
60873;SDS011;46715;40.642;-7.920;2024-02-21T05:09:21;12.57;;;9.27;;
60873;SDS011;46715;40.642;-7.920;2024-02-21T05:11:22;13.47;;;9.43;;
60873;SDS011;46715;40.642;-7.920;2024-02-21T05:13:23;13.03;;;9.43;;
60873;SDS011;46715;40.642;-7.920;2024-02-21T05:15:23;12.67;;;9.40;;
60873;SDS011;46715;40.642;-7.920;2024-02-21T05:17:25;14.85;;;9.90;;
60873;SDS011;46715;40.642;-7.920;2024-02-21T05:19:26;13.47;;;9.80;;
60873;SDS011;46715;40.642;-7.920;2024-02-21T05:21:28;13.98;;;9.23;;
60873;SDS011;46715;40.642;-7.920;2024-02-21T05:23:28;13.13;;;9.97;;
60873;SDS011;46715;40.642;-7.920;2024-02-21T05:25:29;14.67;;;9.57;;
60873;SDS011;46715;40.642;-7.920;2024-02-21T05:27:30;15.10;;;10.10;;
60873;SDS011;46715;40.642;-7.920;2024-02-21T05:29:32;12.77;;;9.07;;
60873;SDS011;46715;40.642;-7.920;2024-02-21T05:33:53;14.60;;;10.13;;
60873;SDS011;46715;40.642;-7.920;2024-02-21T05:35:53;17.10;;;11.10;;
60873;SDS011;46715;40.642;-7.920;2024-02-21T05:37:54;13.53;;;10.47;;
60873;SDS011;46715;40.642;-7.920;2024-02-21T05:39:55;14.33;;;10.77;;
60873;SDS011;46715;40.642;-7.920;2024-02-21T05:41:56;16.27;;;10.50;;
60873;SDS011;46715;40.642;-7.920;2024-02-21T05:43:57;14.97;;;9.20;;
60873;SDS011;46715;40.642;-7.920;2024-02-21T05:45:57;13.83;;;9.83;;
60873;SDS011;46715;40.642;-7.920;2024-02-21T05:47:58;12.70;;;9.73;;
60873;SDS011;46715;40.642;-7.920;2024-02-21T05:49:59;14.55;;;9.00;;
60873;SDS011;46715;40.642;-7.920;2024-02-21T05:52:00;14.37;;;9.77;;
60873;SDS011;46715;40.642;-7.920;2024-02-21T05:54:01;13.63;;;9.73;;
60873;SDS011;46715;40.642;-7.920;2024-02-21T05:56:02;12.13;;;9.20;;
60873;SDS011;46715;40.642;-7.920;2024-02-21T05:58:03;11.67;;;8.83;;
60873;SDS011;46715;40.642;-7.920;2024-02-21T06:00:05;13.50;;;8.83;;
60873;SDS011;46715;40.642;-7.920;2024-02-21T06:02:12;12.50;;;9.13;;
60873;SDS011;46715;40.642;-7.920;2024-02-21T06:04:13;11.60;;;8.80;;
60873;SDS011;46715;40.642;-7.920;2024-02-21T06:06:14;13.77;;;9.57;;
60873;SDS011;46715;40.642;-7.920;2024-02-21T06:08:15;12.17;;;8.83;;
60873;SDS011;46715;40.642;-7.920;2024-02-21T06:10:16;13.37;;;9.90;;
60873;SDS011;46715;40.642;-7.920;2024-02-21T06:12:16;14.20;;;10.47;;
60873;SDS011;46715;40.642;-7.920;2024-02-21T06:14:17;14.80;;;10.33;;
60873;SDS011;46715;40.642;-7.920;2024-02-21T06:16:18;15.37;;;9.93;;
60873;SDS011;46715;40.642;-7.920;2024-02-21T06:18:19;13.90;;;10.10;;
60873;SDS011;46715;40.642;-7.920;2024-02-21T06:22:21;12.95;;;8.25;;
60873;SDS011;46715;40.642;-7.920;2024-02-21T06:24:22;18.13;;;9.33;;
60873;SDS011;46715;40.642;-7.920;2024-02-21T06:26:23;12.20;;;9.40;;
60873;SDS011;46715;40.642;-7.920;2024-02-21T06:28:23;11.13;;;8.97;;
60873;SDS011;46715;40.642;-7.920;2024-02-21T06:30:24;12.70;;;9.63;;
60873;SDS011;46715;40.642;-7.920;2024-02-21T06:32:25;12.03;;;8.50;;
60873;SDS011;46715;40.642;-7.920;2024-02-21T06:34:26;12.73;;;9.23;;
60873;SDS011;46715;40.642;-7.920;2024-02-21T06:36:27;12.17;;;8.23;;
60873;SDS011;46715;40.642;-7.920;2024-02-21T06:38:27;13.67;;;9.80;;
60873;SDS011;46715;40.642;-7.920;2024-02-21T06:40:28;14.03;;;9.97;;
60873;SDS011;46715;40.642;-7.920;2024-02-21T06:42:29;13.97;;;10.07;;
60873;SDS011;46715;40.642;-7.920;2024-02-21T06:44:30;11.87;;;8.90;;
60873;SDS011;46715;40.642;-7.920;2024-02-21T06:46:32;11.93;;;9.48;;
60873;SDS011;46715;40.642;-7.920;2024-02-21T06:48:33;13.27;;;10.25;;
60873;SDS011;46715;40.642;-7.920;2024-02-21T06:50:38;13.57;;;9.18;;
60873;SDS011;46715;40.642;-7.920;2024-02-21T06:52:38;14.70;;;10.13;;
60873;SDS011;46715;40.642;-7.920;2024-02-21T06:54:39;17.80;;;11.43;;
60873;SDS011;46715;40.642;-7.920;2024-02-21T06:56:40;15.00;;;9.90;;
60873;SDS011;46715;40.642;-7.920;2024-02-21T06:58:41;16.73;;;10.07;;
60873;SDS011;46715;40.642;-7.920;2024-02-21T07:00:42;14.60;;;10.83;;
60873;SDS011;46715;40.642;-7.920;2024-02-21T07:02:43;14.60;;;10.25;;
60873;SDS011;46715;40.642;-7.920;2024-02-21T07:04:44;14.10;;;10.00;;
60873;SDS011;46715;40.642;-7.920;2024-02-21T07:06:47;14.32;;;9.98;;
60873;SDS011;46715;40.642;-7.920;2024-02-21T07:08:48;12.70;;;9.77;;
60873;SDS011;46715;40.642;-7.920;2024-02-21T07:10:49;14.03;;;9.93;;
60873;SDS011;46715;40.642;-7.920;2024-02-21T07:12:50;13.63;;;9.83;;
60873;SDS011;46715;40.642;-7.920;2024-02-21T07:14:52;14.90;;;9.65;;
60873;SDS011;46715;40.642;-7.920;2024-02-21T07:16:53;11.53;;;9.13;;
60873;SDS011;46715;40.642;-7.920;2024-02-21T07:18:55;12.90;;;9.43;;
60873;SDS011;46715;40.642;-7.920;2024-02-21T07:20:55;14.80;;;9.88;;
60873;SDS011;46715;40.642;-7.920;2024-02-21T07:22:56;14.57;;;10.57;;
60873;SDS011;46715;40.642;-7.920;2024-02-21T07:24:57;15.23;;;9.83;;
60873;SDS011;46715;40.642;-7.920;2024-02-21T07:26:58;16.97;;;10.40;;
60873;SDS011;46715;40.642;-7.920;2024-02-21T07:29:04;14.05;;;9.77;;
60873;SDS011;46715;40.642;-7.920;2024-02-21T07:31:05;12.07;;;9.33;;
60873;SDS011;46715;40.642;-7.920;2024-02-21T07:33:06;12.37;;;9.60;;
60873;SDS011;46715;40.642;-7.920;2024-02-21T07:35:07;13.85;;;9.60;;
60873;SDS011;46715;40.642;-7.920;2024-02-21T07:37:12;17.23;;;10.32;;
60873;SDS011;46715;40.642;-7.920;2024-02-21T07:39:13;16.07;;;11.27;;
60873;SDS011;46715;40.642;-7.920;2024-02-21T07:41:15;15.40;;;11.25;;
60873;SDS011;46715;40.642;-7.920;2024-02-21T07:43:16;16.90;;;11.37;;
60873;SDS011;46715;40.642;-7.920;2024-02-21T07:45:17;16.00;;;10.97;;
60873;SDS011;46715;40.642;-7.920;2024-02-21T07:47:18;16.20;;;11.50;;
60873;SDS011;46715;40.642;-7.920;2024-02-21T07:49:20;13.73;;;9.73;;
60873;SDS011;46715;40.642;-7.920;2024-02-21T07:51:21;14.47;;;10.37;;
60873;SDS011;46715;40.642;-7.920;2024-02-21T07:53:21;10.40;;;8.87;;
60873;SDS011;46715;40.642;-7.920;2024-02-21T07:55:22;13.73;;;9.90;;
60873;SDS011;46715;40.642;-7.920;2024-02-21T07:57:23;12.70;;;10.03;;
60873;SDS011;46715;40.642;-7.920;2024-02-21T07:59:24;12.80;;;9.87;;
60873;SDS011;46715;40.642;-7.920;2024-02-21T08:01:24;13.60;;;9.73;;
60873;SDS011;46715;40.642;-7.920;2024-02-21T08:03:25;13.80;;;9.97;;
60873;SDS011;46715;40.642;-7.920;2024-02-21T08:05:27;15.80;;;9.63;;
60873;SDS011;46715;40.642;-7.920;2024-02-21T08:07:30;13.05;;;9.05;;
60873;SDS011;46715;40.642;-7.920;2024-02-21T08:09:31;12.35;;;9.82;;
60873;SDS011;46715;40.642;-7.920;2024-02-21T08:11:32;13.27;;;9.20;;
60873;SDS011;46715;40.642;-7.920;2024-02-21T08:13:33;15.00;;;8.97;;
60873;SDS011;46715;40.642;-7.920;2024-02-21T08:15:34;16.07;;;9.60;;
60873;SDS011;46715;40.642;-7.920;2024-02-21T08:17:39;11.38;;;9.00;;
60873;SDS011;46715;40.642;-7.920;2024-02-21T08:19:40;12.23;;;8.63;;
60873;SDS011;46715;40.642;-7.920;2024-02-21T08:21:41;12.53;;;8.57;;
60873;SDS011;46715;40.642;-7.920;2024-02-21T08:23:42;13.60;;;8.70;;
60873;SDS011;46715;40.642;-7.920;2024-02-21T08:25:42;15.53;;;9.37;;
60873;SDS011;46715;40.642;-7.920;2024-02-21T08:27:43;11.80;;;8.60;;
60873;SDS011;46715;40.642;-7.920;2024-02-21T08:31:46;11.93;;;7.75;;
60873;SDS011;46715;40.642;-7.920;2024-02-21T08:33:47;11.93;;;8.30;;
60873;SDS011;46715;40.642;-7.920;2024-02-21T08:35:48;11.75;;;8.10;;
60873;SDS011;46715;40.642;-7.920;2024-02-21T08:37:48;14.30;;;8.10;;
60873;SDS011;46715;40.642;-7.920;2024-02-21T08:39:49;13.57;;;7.73;;
60873;SDS011;46715;40.642;-7.920;2024-02-21T08:41:50;11.17;;;7.87;;
60873;SDS011;46715;40.642;-7.920;2024-02-21T08:43:54;11.07;;;7.93;;
60873;SDS011;46715;40.642;-7.920;2024-02-21T08:45:55;13.55;;;7.95;;
60873;SDS011;46715;40.642;-7.920;2024-02-21T08:47:55;11.30;;;8.33;;
60873;SDS011;46715;40.642;-7.920;2024-02-21T08:49:56;10.90;;;8.40;;
60873;SDS011;46715;40.642;-7.920;2024-02-21T08:51:57;13.07;;;10.87;;
60873;SDS011;46715;40.642;-7.920;2024-02-21T08:54:00;14.60;;;11.30;;
60873;SDS011;46715;40.642;-7.920;2024-02-21T08:56:02;16.02;;;12.05;;
60873;SDS011;46715;40.642;-7.920;2024-02-21T08:58:05;12.57;;;8.93;;
60873;SDS011;46715;40.642;-7.920;2024-02-21T09:00:06;11.82;;;8.93;;
60873;SDS011;46715;40.642;-7.920;2024-02-21T09:02:10;10.55;;;9.00;;
60873;SDS011;46715;40.642;-7.920;2024-02-21T09:04:10;12.83;;;8.77;;
60873;SDS011;46715;40.642;-7.920;2024-02-21T09:06:11;12.47;;;8.93;;
60873;SDS011;46715;40.642;-7.920;2024-02-21T09:08:13;13.05;;;9.60;;
60873;SDS011;46715;40.642;-7.920;2024-02-21T09:10:14;14.27;;;10.33;;
60873;SDS011;46715;40.642;-7.920;2024-02-21T09:12:16;18.58;;;11.02;;
60873;SDS011;46715;40.642;-7.920;2024-02-21T09:14:17;10.77;;;9.55;;
60873;SDS011;46715;40.642;-7.920;2024-02-21T09:16:18;13.73;;;9.23;;
60873;SDS011;46715;40.642;-7.920;2024-02-21T09:18:19;11.55;;;9.77;;
60873;SDS011;46715;40.642;-7.920;2024-02-21T09:20:20;12.02;;;9.27;;
60873;SDS011;46715;40.642;-7.920;2024-02-21T09:22:21;12.05;;;10.07;;
60873;SDS011;46715;40.642;-7.920;2024-02-21T09:24:22;13.07;;;10.40;;
60873;SDS011;46715;40.642;-7.920;2024-02-21T09:26:23;12.82;;;10.15;;
60873;SDS011;46715;40.642;-7.920;2024-02-21T09:28:27;11.98;;;9.02;;
60873;SDS011;46715;40.642;-7.920;2024-02-21T09:30:29;11.65;;;9.05;;
60873;SDS011;46715;40.642;-7.920;2024-02-21T09:32:30;12.05;;;8.43;;
60873;SDS011;46715;40.642;-7.920;2024-02-21T09:34:33;10.82;;;7.32;;
60873;SDS011;46715;40.642;-7.920;2024-02-21T09:36:34;10.57;;;7.57;;
60873;SDS011;46715;40.642;-7.920;2024-02-21T09:38:34;10.50;;;6.70;;
60873;SDS011;46715;40.642;-7.920;2024-02-21T09:40:38;9.88;;;7.30;;
60873;SDS011;46715;40.642;-7.920;2024-02-21T09:42:42;7.53;;;6.57;;
60873;SDS011;46715;40.642;-7.920;2024-02-21T09:44:44;9.85;;;6.85;;
60873;SDS011;46715;40.642;-7.920;2024-02-21T09:47:30;9.95;;;5.95;;
60873;SDS011;46715;40.642;-7.920;2024-02-21T09:51:47;9.20;;;6.00;;
60873;SDS011;46715;40.642;-7.920;2024-02-21T09:53:51;10.52;;;6.93;;
60873;SDS011;46715;40.642;-7.920;2024-02-21T09:55:54;8.95;;;6.88;;
60873;SDS011;46715;40.642;-7.920;2024-02-21T09:57:55;10.20;;;6.60;;
60873;SDS011;46715;40.642;-7.920;2024-02-21T09:59:58;9.80;;;7.00;;
60873;SDS011;46715;40.642;-7.920;2024-02-21T10:02:12;9.07;;;6.45;;
60873;SDS011;46715;40.642;-7.920;2024-02-21T10:04:13;10.02;;;7.53;;
60873;SDS011;46715;40.642;-7.920;2024-02-21T10:06:14;9.95;;;6.72;;
60873;SDS011;46715;40.642;-7.920;2024-02-21T10:08:15;9.07;;;6.47;;
60873;SDS011;46715;40.642;-7.920;2024-02-21T10:10:18;10.95;;;7.05;;
60873;SDS011;46715;40.642;-7.920;2024-02-21T10:12:22;9.88;;;7.28;;
60873;SDS011;46715;40.642;-7.920;2024-02-21T10:14:22;11.10;;;8.27;;
60873;SDS011;46715;40.642;-7.920;2024-02-21T10:16:23;14.25;;;9.18;;
60873;SDS011;46715;40.642;-7.920;2024-02-21T10:18:24;19.27;;;12.75;;
60873;SDS011;46715;40.642;-7.920;2024-02-21T10:20:25;37.67;;;27.48;;
60873;SDS011;46715;40.642;-7.920;2024-02-21T10:22:26;21.75;;;15.43;;
60873;SDS011;46715;40.642;-7.920;2024-02-21T10:24:31;22.63;;;15.10;;
60873;SDS011;46715;40.642;-7.920;2024-02-21T10:26:35;14.02;;;10.02;;
60873;SDS011;46715;40.642;-7.920;2024-02-21T10:28:38;12.52;;;8.93;;
60873;SDS011;46715;40.642;-7.920;2024-02-21T10:30:52;13.70;;;10.48;;
60873;SDS011;46715;40.642;-7.920;2024-02-21T10:32:53;22.58;;;12.70;;
60873;SDS011;46715;40.642;-7.920;2024-02-21T10:35:01;27.70;;;17.65;;
60873;SDS011;46715;40.642;-7.920;2024-02-21T10:37:05;23.42;;;15.63;;
60873;SDS011;46715;40.642;-7.920;2024-02-21T10:39:07;24.08;;;15.93;;
60873;SDS011;46715;40.642;-7.920;2024-02-21T10:41:09;16.80;;;12.32;;
60873;SDS011;46715;40.642;-7.920;2024-02-21T10:43:19;12.65;;;9.32;;
60873;SDS011;46715;40.642;-7.920;2024-02-21T10:45:21;12.68;;;7.28;;
60873;SDS011;46715;40.642;-7.920;2024-02-21T10:47:23;8.52;;;7.15;;
60873;SDS011;46715;40.642;-7.920;2024-02-21T10:49:26;10.55;;;7.05;;
60873;SDS011;46715;40.642;-7.920;2024-02-21T10:51:29;10.43;;;6.50;;
60873;SDS011;46715;40.642;-7.920;2024-02-21T10:58:28;12.50;;;7.82;;
60873;SDS011;46715;40.642;-7.920;2024-02-21T11:00:31;10.68;;;6.57;;
60873;SDS011;46715;40.642;-7.920;2024-02-21T11:02:34;10.60;;;6.13;;
60873;SDS011;46715;40.642;-7.920;2024-02-21T11:04:35;13.60;;;7.30;;
60873;SDS011;46715;40.642;-7.920;2024-02-21T11:06:38;13.55;;;8.10;;
60873;SDS011;46715;40.642;-7.920;2024-02-21T11:08:41;8.45;;;6.10;;
60873;SDS011;46715;40.642;-7.920;2024-02-21T11:10:45;7.37;;;5.80;;
60873;SDS011;46715;40.642;-7.920;2024-02-21T11:12:47;7.25;;;5.18;;
60873;SDS011;46715;40.642;-7.920;2024-02-21T11:14:48;7.82;;;4.68;;
60873;SDS011;46715;40.642;-7.920;2024-02-21T11:16:50;8.23;;;4.47;;
60873;SDS011;46715;40.642;-7.920;2024-02-21T11:18:51;9.10;;;3.90;;
60873;SDS011;46715;40.642;-7.920;2024-02-21T11:20:52;9.57;;;6.07;;
60873;SDS011;46715;40.642;-7.920;2024-02-21T11:22:52;5.97;;;4.60;;
60873;SDS011;46715;40.642;-7.920;2024-02-21T11:24:55;7.30;;;5.07;;
60873;SDS011;46715;40.642;-7.920;2024-02-21T11:27:19;6.30;;;4.55;;
60873;SDS011;46715;40.642;-7.920;2024-02-21T11:29:26;7.93;;;5.05;;
60873;SDS011;46715;40.642;-7.920;2024-02-21T11:31:38;8.13;;;4.53;;
60873;SDS011;46715;40.642;-7.920;2024-02-21T11:33:44;8.52;;;4.63;;
60873;SDS011;46715;40.642;-7.920;2024-02-21T11:35:47;8.35;;;4.90;;
60873;SDS011;46715;40.642;-7.920;2024-02-21T11:37:48;8.35;;;5.60;;
60873;SDS011;46715;40.642;-7.920;2024-02-21T11:39:49;7.70;;;5.75;;
60873;SDS011;46715;40.642;-7.920;2024-02-21T11:42:05;8.32;;;5.20;;
60873;SDS011;46715;40.642;-7.920;2024-02-21T11:44:10;7.40;;;5.40;;
60873;SDS011;46715;40.642;-7.920;2024-02-21T11:46:11;11.02;;;6.00;;
60873;SDS011;46715;40.642;-7.920;2024-02-21T11:48:12;9.52;;;5.97;;
60873;SDS011;46715;40.642;-7.920;2024-02-21T11:50:13;7.30;;;5.65;;
60873;SDS011;46715;40.642;-7.920;2024-02-21T11:52:14;7.63;;;6.07;;
60873;SDS011;46715;40.642;-7.920;2024-02-21T11:54:16;7.57;;;5.07;;
60873;SDS011;46715;40.642;-7.920;2024-02-21T11:56:17;7.38;;;5.25;;
60873;SDS011;46715;40.642;-7.920;2024-02-21T11:58:19;7.70;;;5.68;;
60873;SDS011;46715;40.642;-7.920;2024-02-21T12:00:20;8.65;;;6.05;;
60873;SDS011;46715;40.642;-7.920;2024-02-21T12:02:21;7.22;;;5.78;;
60873;SDS011;46715;40.642;-7.920;2024-02-21T12:04:22;10.68;;;7.13;;
60873;SDS011;46715;40.642;-7.920;2024-02-21T12:06:26;12.95;;;7.75;;
60873;SDS011;46715;40.642;-7.920;2024-02-21T12:08:27;11.10;;;6.97;;
60873;SDS011;46715;40.642;-7.920;2024-02-21T12:10:31;8.90;;;7.13;;
60873;SDS011;46715;40.642;-7.920;2024-02-21T12:12:31;12.98;;;7.45;;